HPN weather

Westchester County Airport
White Plains, New York, United States

Public forecast

Using degrees Fahrenheit for public forecast. Weather courtesy of forecast.io.

Current aviation weather report (METAR) for Westchester County Airport

Retrieved 2019/11/21 03:56 UTC (1 hour ago):

KHPN 210356Z 32007KT 10SM SCT050 02/M02 A3008 RMK AO2 SLP192 T00171022

Aviation forecast (TAF) for Westchester County Airport

Retrieved 2019-11-21 00:36 UTC (4 hours ago):

TAF KHPN 202335Z 2100/2124 33009KT P6SM FEW040 BKN080 FM210200 33008KT P6SM SCT100 FM210600 33007KT P6SM FEW250 FM211700 30006KT P6SM SCT250 FM212200 24004KT P6SM FEW150 SCT250 AMD NOT SKED